sensor_id;sensor_type;location;lat;lon;timestamp;temperature;humidity
40828;DHT22;26549;50.918;5.338;2022-11-06T00:01:10;10.90;99.90
40828;DHT22;26549;50.918;5.338;2022-11-06T00:03:37;11.00;99.90
40828;DHT22;26549;50.918;5.338;2022-11-06T00:06:11;11.00;99.90
40828;DHT22;26549;50.918;5.338;2022-11-06T00:08:58;10.90;99.90
40828;DHT22;26549;50.918;5.338;2022-11-06T00:11:25;10.90;99.90
40828;DHT22;26549;50.918;5.338;2022-11-06T00:13:51;11.00;99.90
40828;DHT22;26549;50.918;5.338;2022-11-06T00:16:18;10.90;99.90
40828;DHT22;26549;50.918;5.338;2022-11-06T00:18:44;11.10;99.90
40828;DHT22;26549;50.918;5.338;2022-11-06T00:21:20;11.10;99.90
40828;DHT22;26549;50.918;5.338;2022-11-06T00:23:47;11.10;99.90
40828;DHT22;26549;50.918;5.338;2022-11-06T00:26:19;11.10;99.90
40828;DHT22;26549;50.918;5.338;2022-11-06T00:28:46;11.20;99.90
40828;DHT22;26549;50.918;5.338;2022-11-06T00:31:17;11.10;99.90
40828;DHT22;26549;50.918;5.338;2022-11-06T00:33:43;11.10;99.90
40828;DHT22;26549;50.918;5.338;2022-11-06T00:36:13;11.10;99.90
40828;DHT22;26549;50.918;5.338;2022-11-06T00:38:39;11.10;99.90
40828;DHT22;26549;50.918;5.338;2022-11-06T00:41:09;11.20;99.90
40828;DHT22;26549;50.918;5.338;2022-11-06T00:43:36;11.30;99.90
40828;DHT22;26549;50.918;5.338;2022-11-06T00:46:02;11.20;99.90
40828;DHT22;26549;50.918;5.338;2022-11-06T00:48:29;11.10;99.90
40828;DHT22;26549;50.918;5.338;2022-11-06T00:51:00;11.10;99.90
40828;DHT22;26549;50.918;5.338;2022-11-06T00:53:26;11.20;99.90
40828;DHT22;26549;50.918;5.338;2022-11-06T00:55:52;11.20;99.90
40828;DHT22;26549;50.918;5.338;2022-11-06T00:58:18;11.20;99.90
40828;DHT22;26549;50.918;5.338;2022-11-06T01:00:44;11.20;99.90
40828;DHT22;26549;50.918;5.338;2022-11-06T01:03:10;11.10;99.90
40828;DHT22;26549;50.918;5.338;2022-11-06T01:05:35;11.20;99.90
40828;DHT22;26549;50.918;5.338;2022-11-06T01:08:01;11.20;99.90
40828;DHT22;26549;50.918;5.338;2022-11-06T01:10:27;11.20;99.90
40828;DHT22;26549;50.918;5.338;2022-11-06T01:12:53;11.30;99.90
40828;DHT22;26549;50.918;5.338;2022-11-06T01:15:20;11.30;99.90
40828;DHT22;26549;50.918;5.338;2022-11-06T01:17:46;11.20;99.90
40828;DHT22;26549;50.918;5.338;2022-11-06T01:20:12;11.30;99.90
40828;DHT22;26549;50.918;5.338;2022-11-06T01:22:39;11.40;99.90
40828;DHT22;26549;50.918;5.338;2022-11-06T01:25:05;11.40;99.90
40828;DHT22;26549;50.918;5.338;2022-11-06T01:27:31;11.40;99.90
40828;DHT22;26549;50.918;5.338;2022-11-06T01:29:57;11.50;99.90
40828;DHT22;26549;50.918;5.338;2022-11-06T01:32:23;11.40;99.90
40828;DHT22;26549;50.918;5.338;2022-11-06T01:34:49;11.50;99.90
40828;DHT22;26549;50.918;5.338;2022-11-06T01:37:15;11.50;99.90
40828;DHT22;26549;50.918;5.338;2022-11-06T01:39:42;11.30;99.90
40828;DHT22;26549;50.918;5.338;2022-11-06T01:42:10;11.40;99.90
40828;DHT22;26549;50.918;5.338;2022-11-06T01:47:24;11.30;99.90
40828;DHT22;26549;50.918;5.338;2022-11-06T01:49:55;11.30;99.90
40828;DHT22;26549;50.918;5.338;2022-11-06T01:52:23;11.40;99.90
40828;DHT22;26549;50.918;5.338;2022-11-06T01:54:53;11.50;99.90
40828;DHT22;26549;50.918;5.338;2022-11-06T01:57:20;11.50;99.90
40828;DHT22;26549;50.918;5.338;2022-11-06T01:59:46;11.40;99.90
40828;DHT22;26549;50.918;5.338;2022-11-06T02:02:14;11.30;99.90
40828;DHT22;26549;50.918;5.338;2022-11-06T02:04:43;11.40;99.90
40828;DHT22;26549;50.918;5.338;2022-11-06T02:07:10;11.50;99.90
40828;DHT22;26549;50.918;5.338;2022-11-06T02:09:36;11.40;99.90
40828;DHT22;26549;50.918;5.338;2022-11-06T02:15:09;11.60;99.90
40828;DHT22;26549;50.918;5.338;2022-11-06T02:20:45;11.40;99.90
40828;DHT22;26549;50.918;5.338;2022-11-06T02:23:38;11.40;99.90
40828;DHT22;26549;50.918;5.338;2022-11-06T02:29:16;11.50;99.90
40828;DHT22;26549;50.918;5.338;2022-11-06T02:31:46;11.50;99.90
40828;DHT22;26549;50.918;5.338;2022-11-06T02:34:15;11.50;99.90
40828;DHT22;26549;50.918;5.338;2022-11-06T02:36:50;11.50;99.90
40828;DHT22;26549;50.918;5.338;2022-11-06T02:39:21;11.40;99.90
40828;DHT22;26549;50.918;5.338;2022-11-06T02:41:50;11.50;99.90
40828;DHT22;26549;50.918;5.338;2022-11-06T02:44:21;11.60;99.90
40828;DHT22;26549;50.918;5.338;2022-11-06T02:47:00;11.50;99.90
40828;DHT22;26549;50.918;5.338;2022-11-06T02:49:44;11.60;99.90
40828;DHT22;26549;50.918;5.338;2022-11-06T02:52:22;11.60;99.90
40828;DHT22;26549;50.918;5.338;2022-11-06T02:55:15;11.50;99.90
40828;DHT22;26549;50.918;5.338;2022-11-06T02:57:51;11.40;99.90
40828;DHT22;26549;50.918;5.338;2022-11-06T03:00:19;11.50;99.90
40828;DHT22;26549;50.918;5.338;2022-11-06T03:05:47;11.30;99.90
40828;DHT22;26549;50.918;5.338;2022-11-06T03:08:25;11.40;99.90
40828;DHT22;26549;50.918;5.338;2022-11-06T03:11:40;11.30;99.90
40828;DHT22;26549;50.918;5.338;2022-11-06T03:19:28;11.50;99.90
40828;DHT22;26549;50.918;5.338;2022-11-06T03:22:10;11.60;99.90
40828;DHT22;26549;50.918;5.338;2022-11-06T03:24:46;11.50;99.90
40828;DHT22;26549;50.918;5.338;2022-11-06T03:27:19;11.50;99.90
40828;DHT22;26549;50.918;5.338;2022-11-06T03:29:53;11.50;99.90
40828;DHT22;26549;50.918;5.338;2022-11-06T03:32:26;11.40;99.90
40828;DHT22;26549;50.918;5.338;2022-11-06T03:35:00;11.50;99.90
40828;DHT22;26549;50.918;5.338;2022-11-06T03:37:33;11.50;99.90
40828;DHT22;26549;50.918;5.338;2022-11-06T03:40:04;11.60;99.90
40828;DHT22;26549;50.918;5.338;2022-11-06T03:42:33;11.70;99.90
40828;DHT22;26549;50.918;5.338;2022-11-06T03:45:04;11.50;99.90
40828;DHT22;26549;50.918;5.338;2022-11-06T03:47:36;11.50;99.90
40828;DHT22;26549;50.918;5.338;2022-11-06T03:50:51;11.50;99.90
40828;DHT22;26549;50.918;5.338;2022-11-06T03:53:05;11.50;99.90
40828;DHT22;26549;50.918;5.338;2022-11-06T03:55:37;11.50;99.90
40828;DHT22;26549;50.918;5.338;2022-11-06T03:58:12;11.60;99.90
40828;DHT22;26549;50.918;5.338;2022-11-06T04:00:41;11.50;99.90
40828;DHT22;26549;50.918;5.338;2022-11-06T04:03:17;11.50;99.90
40828;DHT22;26549;50.918;5.338;2022-11-06T04:05:53;11.60;99.90
40828;DHT22;26549;50.918;5.338;2022-11-06T04:08:22;11.70;99.90
40828;DHT22;26549;50.918;5.338;2022-11-06T04:11:09;11.70;99.90
40828;DHT22;26549;50.918;5.338;2022-11-06T04:13:56;11.60;99.90
40828;DHT22;26549;50.918;5.338;2022-11-06T04:16:29;11.50;99.90
40828;DHT22;26549;50.918;5.338;2022-11-06T04:18:57;11.40;99.90
40828;DHT22;26549;50.918;5.338;2022-11-06T04:21:25;11.40;99.90
40828;DHT22;26549;50.918;5.338;2022-11-06T04:26:51;11.40;99.90
40828;DHT22;26549;50.918;5.338;2022-11-06T04:32:20;11.40;99.90
40828;DHT22;26549;50.918;5.338;2022-11-06T04:37:53;11.30;99.90
40828;DHT22;26549;50.918;5.338;2022-11-06T04:40:41;11.30;99.90
40828;DHT22;26549;50.918;5.338;2022-11-06T04:43:32;11.30;99.90
40828;DHT22;26549;50.918;5.338;2022-11-06T04:46:02;11.20;99.90
40828;DHT22;26549;50.918;5.338;2022-11-06T04:48:30;11.30;99.90
40828;DHT22;26549;50.918;5.338;2022-11-06T04:51:00;11.40;99.90
40828;DHT22;26549;50.918;5.338;2022-11-06T04:53:28;11.40;99.90
40828;DHT22;26549;50.918;5.338;2022-11-06T04:56:05;11.40;99.90
40828;DHT22;26549;50.918;5.338;2022-11-06T04:58:32;11.40;99.90
40828;DHT22;26549;50.918;5.338;2022-11-06T05:00:58;11.30;99.90
40828;DHT22;26549;50.918;5.338;2022-11-06T05:03:24;11.30;99.90
40828;DHT22;26549;50.918;5.338;2022-11-06T05:05:50;11.30;99.90
40828;DHT22;26549;50.918;5.338;2022-11-06T05:08:18;11.30;99.90
40828;DHT22;26549;50.918;5.338;2022-11-06T05:10:44;11.30;99.90
40828;DHT22;26549;50.918;5.338;2022-11-06T05:13:11;11.30;99.90
40828;DHT22;26549;50.918;5.338;2022-11-06T05:15:37;11.30;99.90
40828;DHT22;26549;50.918;5.338;2022-11-06T05:18:04;11.30;99.90
40828;DHT22;26549;50.918;5.338;2022-11-06T05:20:31;11.20;99.90
40828;DHT22;26549;50.918;5.338;2022-11-06T05:22:57;11.30;99.90
40828;DHT22;26549;50.918;5.338;2022-11-06T05:25:34;11.40;99.90
40828;DHT22;26549;50.918;5.338;2022-11-06T05:28:02;11.30;99.90
40828;DHT22;26549;50.918;5.338;2022-11-06T05:30:31;11.40;99.90
40828;DHT22;26549;50.918;5.338;2022-11-06T05:32:57;11.40;99.90
40828;DHT22;26549;50.918;5.338;2022-11-06T05:35:24;11.50;99.90
40828;DHT22;26549;50.918;5.338;2022-11-06T05:37:49;11.40;99.90
40828;DHT22;26549;50.918;5.338;2022-11-06T05:40:16;11.40;99.90
40828;DHT22;26549;50.918;5.338;2022-11-06T05:42:43;11.40;99.90
40828;DHT22;26549;50.918;5.338;2022-11-06T05:45:10;11.40;99.90
40828;DHT22;26549;50.918;5.338;2022-11-06T05:47:39;11.40;99.90
40828;DHT22;26549;50.918;5.338;2022-11-06T05:50:07;11.50;99.90
40828;DHT22;26549;50.918;5.338;2022-11-06T05:52:34;11.50;99.90
40828;DHT22;26549;50.918;5.338;2022-11-06T05:55:00;11.50;99.90
40828;DHT22;26549;50.918;5.338;2022-11-06T05:57:26;11.50;99.90
40828;DHT22;26549;50.918;5.338;2022-11-06T05:59:52;11.60;99.90
40828;DHT22;26549;50.918;5.338;2022-11-06T06:02:18;11.50;99.90
40828;DHT22;26549;50.918;5.338;2022-11-06T06:04:44;11.50;99.90
40828;DHT22;26549;50.918;5.338;2022-11-06T06:07:10;11.50;99.90
40828;DHT22;26549;50.918;5.338;2022-11-06T06:09:36;11.50;99.90
40828;DHT22;26549;50.918;5.338;2022-11-06T06:12:02;11.50;99.90
40828;DHT22;26549;50.918;5.338;2022-11-06T06:14:28;11.50;99.90
40828;DHT22;26549;50.918;5.338;2022-11-06T06:16:54;11.50;99.90
40828;DHT22;26549;50.918;5.338;2022-11-06T06:19:21;11.50;99.90
40828;DHT22;26549;50.918;5.338;2022-11-06T06:21:48;11.40;99.90
40828;DHT22;26549;50.918;5.338;2022-11-06T06:24:14;11.40;99.90
40828;DHT22;26549;50.918;5.338;2022-11-06T06:26:40;11.40;99.90
40828;DHT22;26549;50.918;5.338;2022-11-06T06:29:06;11.50;99.90
40828;DHT22;26549;50.918;5.338;2022-11-06T06:31:32;11.50;99.90
40828;DHT22;26549;50.918;5.338;2022-11-06T06:33:58;11.50;99.90
40828;DHT22;26549;50.918;5.338;2022-11-06T06:36:24;11.40;99.90
40828;DHT22;26549;50.918;5.338;2022-11-06T06:38:50;11.50;99.90
40828;DHT22;26549;50.918;5.338;2022-11-06T06:41:16;11.50;99.90
40828;DHT22;26549;50.918;5.338;2022-11-06T06:43:42;11.50;99.90
40828;DHT22;26549;50.918;5.338;2022-11-06T06:46:08;11.50;99.90
40828;DHT22;26549;50.918;5.338;2022-11-06T06:48:34;11.40;99.90
40828;DHT22;26549;50.918;5.338;2022-11-06T06:51:02;11.40;99.90
40828;DHT22;26549;50.918;5.338;2022-11-06T06:53:28;11.40;99.90
40828;DHT22;26549;50.918;5.338;2022-11-06T06:55:56;11.60;99.90
40828;DHT22;26549;50.918;5.338;2022-11-06T06:58:22;11.40;99.90
40828;DHT22;26549;50.918;5.338;2022-11-06T07:00:48;11.40;99.90
40828;DHT22;26549;50.918;5.338;2022-11-06T07:03:14;11.40;99.90
40828;DHT22;26549;50.918;5.338;2022-11-06T07:05:40;11.40;99.90
40828;DHT22;26549;50.918;5.338;2022-11-06T07:08:06;11.30;99.90
40828;DHT22;26549;50.918;5.338;2022-11-06T07:10:32;11.40;99.90
40828;DHT22;26549;50.918;5.338;2022-11-06T07:13:02;11.40;99.90
40828;DHT22;26549;50.918;5.338;2022-11-06T07:15:28;11.40;99.90
40828;DHT22;26549;50.918;5.338;2022-11-06T07:17:54;11.50;99.90
40828;DHT22;26549;50.918;5.338;2022-11-06T07:20:20;11.50;99.90
40828;DHT22;26549;50.918;5.338;2022-11-06T07:22:46;11.40;99.90
40828;DHT22;26549;50.918;5.338;2022-11-06T07:25:12;11.50;99.90
40828;DHT22;26549;50.918;5.338;2022-11-06T07:27:38;11.50;99.90
40828;DHT22;26549;50.918;5.338;2022-11-06T07:30:06;11.50;99.90
40828;DHT22;26549;50.918;5.338;2022-11-06T07:32:32;11.50;99.90
40828;DHT22;26549;50.918;5.338;2022-11-06T07:34:58;11.60;99.90
40828;DHT22;26549;50.918;5.338;2022-11-06T07:37:24;11.60;99.90
40828;DHT22;26549;50.918;5.338;2022-11-06T07:39:50;11.50;99.90
40828;DHT22;26549;50.918;5.338;2022-11-06T07:42:16;11.60;99.90
40828;DHT22;26549;50.918;5.338;2022-11-06T07:44:42;11.70;99.90
40828;DHT22;26549;50.918;5.338;2022-11-06T07:47:08;11.70;99.90
40828;DHT22;26549;50.918;5.338;2022-11-06T07:49:34;11.70;99.90
40828;DHT22;26549;50.918;5.338;2022-11-06T07:52:01;11.80;99.90
40828;DHT22;26549;50.918;5.338;2022-11-06T07:54:28;11.70;99.90
40828;DHT22;26549;50.918;5.338;2022-11-06T07:56:55;11.80;99.90
40828;DHT22;26549;50.918;5.338;2022-11-06T07:59:21;11.80;99.90
40828;DHT22;26549;50.918;5.338;2022-11-06T08:01:47;11.90;99.90
40828;DHT22;26549;50.918;5.338;2022-11-06T08:04:13;11.90;99.90
40828;DHT22;26549;50.918;5.338;2022-11-06T08:06:39;12.00;99.90
40828;DHT22;26549;50.918;5.338;2022-11-06T08:09:07;12.00;99.90
40828;DHT22;26549;50.918;5.338;2022-11-06T08:11:33;12.10;99.90
40828;DHT22;26549;50.918;5.338;2022-11-06T08:13:59;12.10;99.90
40828;DHT22;26549;50.918;5.338;2022-11-06T08:16:26;12.10;99.90
40828;DHT22;26549;50.918;5.338;2022-11-06T08:18:52;12.10;99.90
40828;DHT22;26549;50.918;5.338;2022-11-06T08:21:18;12.10;99.90
40828;DHT22;26549;50.918;5.338;2022-11-06T08:23:44;12.30;99.90
40828;DHT22;26549;50.918;5.338;2022-11-06T08:26:10;12.50;99.90
40828;DHT22;26549;50.918;5.338;2022-11-06T08:28:36;12.50;99.90
40828;DHT22;26549;50.918;5.338;2022-11-06T08:31:07;12.40;99.90
40828;DHT22;26549;50.918;5.338;2022-11-06T08:33:34;12.40;99.90
40828;DHT22;26549;50.918;5.338;2022-11-06T08:36:01;12.20;99.90
40828;DHT22;26549;50.918;5.338;2022-11-06T08:38:27;12.20;99.90
40828;DHT22;26549;50.918;5.338;2022-11-06T08:40:53;12.30;99.90
40828;DHT22;26549;50.918;5.338;2022-11-06T08:43:19;12.40;99.90
40828;DHT22;26549;50.918;5.338;2022-11-06T08:45:45;12.60;99.90
40828;DHT22;26549;50.918;5.338;2022-11-06T08:48:10;12.70;99.90
40828;DHT22;26549;50.918;5.338;2022-11-06T08:50:38;12.70;99.90
40828;DHT22;26549;50.918;5.338;2022-11-06T08:53:04;12.70;99.90
40828;DHT22;26549;50.918;5.338;2022-11-06T08:55:36;12.60;99.90
40828;DHT22;26549;50.918;5.338;2022-11-06T08:58:03;12.60;99.90
40828;DHT22;26549;50.918;5.338;2022-11-06T09:00:29;12.60;99.90
40828;DHT22;26549;50.918;5.338;2022-11-06T09:02:59;12.60;99.90
40828;DHT22;26549;50.918;5.338;2022-11-06T09:05:26;12.60;99.90
40828;DHT22;26549;50.918;5.338;2022-11-06T09:07:52;12.60;99.90
40828;DHT22;26549;50.918;5.338;2022-11-06T09:10:17;12.50;99.90
40828;DHT22;26549;50.918;5.338;2022-11-06T09:12:43;12.60;99.90
40828;DHT22;26549;50.918;5.338;2022-11-06T09:15:09;12.50;99.90
40828;DHT22;26549;50.918;5.338;2022-11-06T09:17:46;12.60;99.90
40828;DHT22;26549;50.918;5.338;2022-11-06T09:20:14;12.60;99.90
40828;DHT22;26549;50.918;5.338;2022-11-06T09:22:40;12.60;99.90
40828;DHT22;26549;50.918;5.338;2022-11-06T09:25:07;12.70;99.90
40828;DHT22;26549;50.918;5.338;2022-11-06T09:30:11;12.90;99.90
40828;DHT22;26549;50.918;5.338;2022-11-06T09:32:37;12.90;99.90
40828;DHT22;26549;50.918;5.338;2022-11-06T09:35:03;12.90;99.90
40828;DHT22;26549;50.918;5.338;2022-11-06T09:37:29;13.00;99.90
40828;DHT22;26549;50.918;5.338;2022-11-06T09:39:55;13.10;99.90
40828;DHT22;26549;50.918;5.338;2022-11-06T09:45:11;13.00;99.90
40828;DHT22;26549;50.918;5.338;2022-11-06T09:47:42;13.00;99.90
40828;DHT22;26549;50.918;5.338;2022-11-06T09:50:15;13.10;99.90
40828;DHT22;26549;50.918;5.338;2022-11-06T09:52:51;13.00;99.90
40828;DHT22;26549;50.918;5.338;2022-11-06T09:55:26;13.00;99.90
40828;DHT22;26549;50.918;5.338;2022-11-06T09:57:56;13.10;99.90
40828;DHT22;26549;50.918;5.338;2022-11-06T10:00:22;13.20;99.90
40828;DHT22;26549;50.918;5.338;2022-11-06T10:03:00;13.20;99.90
40828;DHT22;26549;50.918;5.338;2022-11-06T10:05:31;13.20;99.90
40828;DHT22;26549;50.918;5.338;2022-11-06T10:08:03;13.30;99.90
40828;DHT22;26549;50.918;5.338;2022-11-06T10:10:35;13.30;99.90
40828;DHT22;26549;50.918;5.338;2022-11-06T10:19:06;13.10;99.90
40828;DHT22;26549;50.918;5.338;2022-11-06T10:21:46;13.20;99.90
40828;DHT22;26549;50.918;5.338;2022-11-06T10:27:26;13.20;99.90
40828;DHT22;26549;50.918;5.338;2022-11-06T10:30:15;13.40;99.90
40828;DHT22;26549;50.918;5.338;2022-11-06T10:33:10;13.50;99.90
40828;DHT22;26549;50.918;5.338;2022-11-06T10:36:09;13.40;99.90
40828;DHT22;26549;50.918;5.338;2022-11-06T10:38:42;13.40;99.90
40828;DHT22;26549;50.918;5.338;2022-11-06T10:41:33;13.40;99.90
40828;DHT22;26549;50.918;5.338;2022-11-06T10:44:13;13.20;99.90
40828;DHT22;26549;50.918;5.338;2022-11-06T10:46:46;13.30;99.90
40828;DHT22;26549;50.918;5.338;2022-11-06T10:52:06;13.60;99.90
40828;DHT22;26549;50.918;5.338;2022-11-06T10:57:35;13.50;99.90
40828;DHT22;26549;50.918;5.338;2022-11-06T11:00:13;13.50;99.90
40828;DHT22;26549;50.918;5.338;2022-11-06T11:02:51;13.60;99.90
40828;DHT22;26549;50.918;5.338;2022-11-06T11:05:19;13.50;99.90
40828;DHT22;26549;50.918;5.338;2022-11-06T11:07:48;13.50;99.90
40828;DHT22;26549;50.918;5.338;2022-11-06T11:10:27;13.50;99.90
40828;DHT22;26549;50.918;5.338;2022-11-06T11:12:56;13.40;99.90
40828;DHT22;26549;50.918;5.338;2022-11-06T11:15:27;13.40;99.90
40828;DHT22;26549;50.918;5.338;2022-11-06T11:20:39;13.60;99.90
40828;DHT22;26549;50.918;5.338;2022-11-06T11:23:23;13.70;99.90
40828;DHT22;26549;50.918;5.338;2022-11-06T11:31:10;13.70;99.90
40828;DHT22;26549;50.918;5.338;2022-11-06T11:33:39;13.60;99.90
40828;DHT22;26549;50.918;5.338;2022-11-06T11:36:07;13.60;99.90
40828;DHT22;26549;50.918;5.338;2022-11-06T11:38:36;13.60;99.90
40828;DHT22;26549;50.918;5.338;2022-11-06T11:46:52;13.70;99.90
40828;DHT22;26549;50.918;5.338;2022-11-06T11:49:30;13.60;99.90
40828;DHT22;26549;50.918;5.338;2022-11-06T11:52:00;13.70;99.90
40828;DHT22;26549;50.918;5.338;2022-11-06T11:54:33;13.80;99.90
40828;DHT22;26549;50.918;5.338;2022-11-06T11:57:05;13.80;99.90
40828;DHT22;26549;50.918;5.338;2022-11-06T12:02:22;13.70;99.90
40828;DHT22;26549;50.918;5.338;2022-11-06T12:04:53;13.80;99.90
40828;DHT22;26549;50.918;5.338;2022-11-06T12:07:46;13.80;99.90
40828;DHT22;26549;50.918;5.338;2022-11-06T12:13:00;13.80;99.90
40828;DHT22;26549;50.918;5.338;2022-11-06T12:15:32;13.70;99.90
40828;DHT22;26549;50.918;5.338;2022-11-06T12:18:03;13.80;99.90
40828;DHT22;26549;50.918;5.338;2022-11-06T12:20:49;13.70;99.90
40828;DHT22;26549;50.918;5.338;2022-11-06T12:23:28;13.60;99.90
40828;DHT22;26549;50.918;5.338;2022-11-06T12:29:16;13.80;99.90
40828;DHT22;26549;50.918;5.338;2022-11-06T12:40:46;13.70;99.90
40828;DHT22;26549;50.918;5.338;2022-11-06T12:43:37;13.70;99.90
40828;DHT22;26549;50.918;5.338;2022-11-06T12:49:31;13.50;99.90
40828;DHT22;26549;50.918;5.338;2022-11-06T12:52:42;13.40;99.90
40828;DHT22;26549;50.918;5.338;2022-11-06T12:55:14;13.40;99.90
40828;DHT22;26549;50.918;5.338;2022-11-06T12:58:08;13.40;99.90
40828;DHT22;26549;50.918;5.338;2022-11-06T13:01:19;13.40;99.90
40828;DHT22;26549;50.918;5.338;2022-11-06T13:09:41;13.20;99.90
40828;DHT22;26549;50.918;5.338;2022-11-06T13:12:36;13.10;99.90
40828;DHT22;26549;50.918;5.338;2022-11-06T13:15:18;13.00;99.90
40828;DHT22;26549;50.918;5.338;2022-11-06T13:18:08;12.90;99.90
40828;DHT22;26549;50.918;5.338;2022-11-06T13:21:06;12.70;99.90
40828;DHT22;26549;50.918;5.338;2022-11-06T13:23:50;12.70;99.90
40828;DHT22;26549;50.918;5.338;2022-11-06T13:26:39;12.60;99.90
40828;DHT22;26549;50.918;5.338;2022-11-06T13:29:10;12.60;99.90
40828;DHT22;26549;50.918;5.338;2022-11-06T13:31:40;12.60;99.90
40828;DHT22;26549;50.918;5.338;2022-11-06T13:34:14;12.60;99.90
40828;DHT22;26549;50.918;5.338;2022-11-06T13:36:42;12.60;99.90
40828;DHT22;26549;50.918;5.338;2022-11-06T13:39:38;12.60;99.90
40828;DHT22;26549;50.918;5.338;2022-11-06T13:42:26;12.60;99.90
40828;DHT22;26549;50.918;5.338;2022-11-06T13:44:54;12.60;99.90
40828;DHT22;26549;50.918;5.338;2022-11-06T13:47:51;12.60;99.90
40828;DHT22;26549;50.918;5.338;2022-11-06T13:50:36;12.50;99.90
40828;DHT22;26549;50.918;5.338;2022-11-06T13:53:17;12.40;99.90
40828;DHT22;26549;50.918;5.338;2022-11-06T13:58:35;12.50;99.90
40828;DHT22;26549;50.918;5.338;2022-11-06T14:06:37;12.30;99.90
40828;DHT22;26549;50.918;5.338;2022-11-06T14:09:09;12.30;99.90
40828;DHT22;26549;50.918;5.338;2022-11-06T14:11:42;12.20;99.90
40828;DHT22;26549;50.918;5.338;2022-11-06T14:14:23;12.10;99.90
40828;DHT22;26549;50.918;5.338;2022-11-06T14:19:35;12.00;99.90
40828;DHT22;26549;50.918;5.338;2022-11-06T14:24:45;11.90;99.90
40828;DHT22;26549;50.918;5.338;2022-11-06T14:32:54;11.80;99.90
40828;DHT22;26549;50.918;5.338;2022-11-06T14:35:30;11.80;99.90
40828;DHT22;26549;50.918;5.338;2022-11-06T14:40:54;11.80;99.90
40828;DHT22;26549;50.918;5.338;2022-11-06T14:43:32;11.70;99.90
40828;DHT22;26549;50.918;5.338;2022-11-06T14:48:39;11.50;99.90
40828;DHT22;26549;50.918;5.338;2022-11-06T14:51:09;11.40;99.90
40828;DHT22;26549;50.918;5.338;2022-11-06T14:53:39;11.50;99.90
40828;DHT22;26549;50.918;5.338;2022-11-06T14:56:11;11.40;99.90
40828;DHT22;26549;50.918;5.338;2022-11-06T14:58:53;11.50;99.90
40828;DHT22;26549;50.918;5.338;2022-11-06T15:01:32;11.50;99.90
40828;DHT22;26549;50.918;5.338;2022-11-06T15:09:02;11.50;99.90
40828;DHT22;26549;50.918;5.338;2022-11-06T15:16:36;11.40;99.90
40828;DHT22;26549;50.918;5.338;2022-11-06T15:19:05;11.40;99.90
40828;DHT22;26549;50.918;5.338;2022-11-06T15:21:38;11.40;99.90
40828;DHT22;26549;50.918;5.338;2022-11-06T15:24:28;11.40;99.90
40828;DHT22;26549;50.918;5.338;2022-11-06T15:26:58;11.40;99.90
40828;DHT22;26549;50.918;5.338;2022-11-06T15:29:30;11.30;99.90
40828;DHT22;26549;50.918;5.338;2022-11-06T15:32:05;11.30;99.90
40828;DHT22;26549;50.918;5.338;2022-11-06T15:34:39;11.30;99.90
40828;DHT22;26549;50.918;5.338;2022-11-06T15:37:13;11.40;99.90
40828;DHT22;26549;50.918;5.338;2022-11-06T15:39:49;11.50;99.90
40828;DHT22;26549;50.918;5.338;2022-11-06T15:42:18;11.50;99.90
40828;DHT22;26549;50.918;5.338;2022-11-06T15:44:46;11.40;99.90
40828;DHT22;26549;50.918;5.338;2022-11-06T15:47:27;11.40;99.90
40828;DHT22;26549;50.918;5.338;2022-11-06T15:50:15;11.40;99.90
40828;DHT22;26549;50.918;5.338;2022-11-06T15:52:41;11.40;99.90
40828;DHT22;26549;50.918;5.338;2022-11-06T15:55:28;11.40;99.90
40828;DHT22;26549;50.918;5.338;2022-11-06T15:58:29;11.30;99.90
40828;DHT22;26549;50.918;5.338;2022-11-06T16:00:55;11.20;99.90
40828;DHT22;26549;50.918;5.338;2022-11-06T16:03:24;11.20;99.90
40828;DHT22;26549;50.918;5.338;2022-11-06T16:05:51;11.20;99.90
40828;DHT22;26549;50.918;5.338;2022-11-06T16:08:19;11.20;99.90
40828;DHT22;26549;50.918;5.338;2022-11-06T16:10:46;11.30;99.90
40828;DHT22;26549;50.918;5.338;2022-11-06T16:13:17;11.10;99.90
40828;DHT22;26549;50.918;5.338;2022-11-06T16:15:48;11.20;99.90
40828;DHT22;26549;50.918;5.338;2022-11-06T16:18:37;11.10;99.90
40828;DHT22;26549;50.918;5.338;2022-11-06T16:21:18;11.10;99.90
40828;DHT22;26549;50.918;5.338;2022-11-06T16:23:49;11.10;99.90
40828;DHT22;26549;50.918;5.338;2022-11-06T16:26:24;11.00;99.90
40828;DHT22;26549;50.918;5.338;2022-11-06T16:28:52;11.00;99.90
40828;DHT22;26549;50.918;5.338;2022-11-06T16:31:26;11.00;99.90
40828;DHT22;26549;50.918;5.338;2022-11-06T16:34:17;10.80;99.90
40828;DHT22;26549;50.918;5.338;2022-11-06T16:44:43;10.80;99.90
40828;DHT22;26549;50.918;5.338;2022-11-06T16:49:36;10.70;99.90
40828;DHT22;26549;50.918;5.338;2022-11-06T16:52:36;10.70;99.90
40828;DHT22;26549;50.918;5.338;2022-11-06T16:55:17;10.80;99.90
40828;DHT22;26549;50.918;5.338;2022-11-06T16:57:56;10.80;99.90
40828;DHT22;26549;50.918;5.338;2022-11-06T17:00:28;10.90;99.90
40828;DHT22;26549;50.918;5.338;2022-11-06T17:05:29;11.00;99.90
40828;DHT22;26549;50.918;5.338;2022-11-06T17:08:35;10.90;99.90
40828;DHT22;26549;50.918;5.338;2022-11-06T17:11:27;11.00;99.90
40828;DHT22;26549;50.918;5.338;2022-11-06T17:13:53;11.10;99.90
40828;DHT22;26549;50.918;5.338;2022-11-06T17:16:23;11.20;99.90
40828;DHT22;26549;50.918;5.338;2022-11-06T17:18:50;11.10;99.90
40828;DHT22;26549;50.918;5.338;2022-11-06T17:21:19;11.20;99.90
40828;DHT22;26549;50.918;5.338;2022-11-06T17:23:45;11.10;99.90
40828;DHT22;26549;50.918;5.338;2022-11-06T17:26:23;11.10;99.90
40828;DHT22;26549;50.918;5.338;2022-11-06T17:28:49;11.20;99.90
40828;DHT22;26549;50.918;5.338;2022-11-06T17:31:18;11.10;99.90
40828;DHT22;26549;50.918;5.338;2022-11-06T17:33:44;11.20;99.90
40828;DHT22;26549;50.918;5.338;2022-11-06T17:36:24;11.20;99.90
40828;DHT22;26549;50.918;5.338;2022-11-06T17:38:51;11.20;99.90
40828;DHT22;26549;50.918;5.338;2022-11-06T17:41:17;11.20;99.90
40828;DHT22;26549;50.918;5.338;2022-11-06T17:44:05;11.20;99.90
40828;DHT22;26549;50.918;5.338;2022-11-06T17:46:34;11.40;99.90
40828;DHT22;26549;50.918;5.338;2022-11-06T17:49:00;11.30;99.90
40828;DHT22;26549;50.918;5.338;2022-11-06T17:51:29;11.30;99.90
40828;DHT22;26549;50.918;5.338;2022-11-06T17:54:14;11.30;99.90
40828;DHT22;26549;50.918;5.338;2022-11-06T17:56:40;11.40;99.90
40828;DHT22;26549;50.918;5.338;2022-11-06T17:59:07;11.40;99.90
40828;DHT22;26549;50.918;5.338;2022-11-06T18:01:34;11.60;99.90
40828;DHT22;26549;50.918;5.338;2022-11-06T18:03:59;11.50;99.90
40828;DHT22;26549;50.918;5.338;2022-11-06T18:06:26;11.40;99.90
40828;DHT22;26549;50.918;5.338;2022-11-06T18:09:00;11.40;99.90
40828;DHT22;26549;50.918;5.338;2022-11-06T18:11:26;11.60;99.90
40828;DHT22;26549;50.918;5.338;2022-11-06T18:13:52;11.50;99.90
40828;DHT22;26549;50.918;5.338;2022-11-06T18:16:25;11.60;99.90